createdAt,value
2022-12-01T00:01:02.210Z,5.70
2022-12-01T00:03:32.494Z,5.80
2022-12-01T00:06:12.030Z,5.83
2022-12-01T00:08:38.687Z,5.66
2022-12-01T00:11:07.175Z,5.79
2022-12-01T00:13:34.086Z,5.76
2022-12-01T00:16:14.474Z,5.95
2022-12-01T00:18:41.160Z,5.85
2022-12-01T00:21:14.589Z,5.83
2022-12-01T00:23:46.046Z,6.01
2022-12-01T00:26:12.445Z,5.81
2022-12-01T00:28:39.121Z,5.92
2022-12-01T00:31:12.531Z,5.90
2022-12-01T00:33:39.485Z,6.00
2022-12-01T00:36:07.260Z,5.94
2022-12-01T00:38:34.124Z,6.04
2022-12-01T00:41:00.580Z,5.95
2022-12-01T00:43:27.042Z,6.00
2022-12-01T00:45:53.864Z,6.17
2022-12-01T00:48:20.259Z,6.11
2022-12-01T00:50:47.213Z,6.11
2022-12-01T00:53:13.647Z,6.15
2022-12-01T00:55:40.406Z,6.07
2022-12-01T00:58:07.485Z,6.13
2022-12-01T01:00:34.042Z,6.05
2022-12-01T01:03:00.413Z,6.10
2022-12-01T01:05:26.806Z,6.04
2022-12-01T01:07:53.219Z,6.08
2022-12-01T01:10:19.651Z,5.99
2022-12-01T01:12:46.057Z,6.15
2022-12-01T01:15:12.677Z,5.95
2022-12-01T01:17:39.439Z,6.01
2022-12-01T01:20:06.819Z,6.11
2022-12-01T01:22:34.967Z,6.12
2022-12-01T01:25:01.368Z,6.13
2022-12-01T01:27:27.770Z,6.02
2022-12-01T01:29:54.142Z,6.19
2022-12-01T01:32:20.811Z,6.21
2022-12-01T01:34:47.203Z,6.14
2022-12-01T01:37:13.577Z,6.07
2022-12-01T01:39:39.986Z,6.11
2022-12-01T01:42:06.358Z,6.06
2022-12-01T01:44:49.806Z,6.14
2022-12-01T01:47:32.961Z,6.11
2022-12-01T01:50:06.067Z,6.13
2022-12-01T01:52:34.102Z,6.18
2022-12-01T01:55:00.735Z,6.19
2022-12-01T01:57:29.107Z,6.10
2022-12-01T02:00:00.035Z,5.93
2022-12-01T02:02:26.565Z,6.05
2022-12-01T02:04:59.438Z,6.04
2022-12-01T02:07:25.988Z,6.03
2022-12-01T02:09:53.840Z,6.04
2022-12-01T02:12:48.047Z,6.02
2022-12-01T02:15:37.118Z,5.85
2022-12-01T02:18:18.734Z,5.89
2022-12-01T02:21:03.865Z,6.11
2022-12-01T02:23:42.522Z,6.09
2022-12-01T02:26:35.390Z,5.90
2022-12-01T02:29:26.890Z,6.03
2022-12-01T02:32:16.725Z,5.98
2022-12-01T02:34:58.623Z,5.99
2022-12-01T02:37:32.420Z,6.10
2022-12-01T02:40:21.985Z,5.86
2022-12-01T02:43:04.696Z,5.95
2022-12-01T02:45:48.270Z,5.85
2022-12-01T02:48:21.128Z,5.89
2022-12-01T02:50:48.142Z,6.18
2022-12-01T02:53:16.079Z,6.05
2022-12-01T02:55:53.426Z,6.08
2022-12-01T02:58:20.171Z,6.14
2022-12-01T03:00:57.353Z,6.15
2022-12-01T03:03:45.850Z,5.90
2022-12-01T03:06:54.323Z,5.93
2022-12-01T03:09:53.388Z,6.06
2022-12-01T03:12:45.130Z,6.06
2022-12-01T03:15:14.211Z,6.09
2022-12-01T03:17:50.115Z,5.95
2022-12-01T03:20:22.562Z,5.96
2022-12-01T03:22:53.694Z,5.88
2022-12-01T03:25:21.593Z,5.87
2022-12-01T03:28:19.363Z,6.12
2022-12-01T03:30:36.935Z,6.09
2022-12-01T03:33:10.346Z,5.92
2022-12-01T03:35:47.641Z,5.98
2022-12-01T03:38:28.107Z,5.88
2022-12-01T03:40:59.611Z,5.87
2022-12-01T03:43:30.666Z,5.92
2022-12-01T03:46:37.998Z,6.07
2022-12-01T03:49:05.629Z,6.11
2022-12-01T03:51:58.378Z,6.15
2022-12-01T03:54:45.325Z,6.07
2022-12-01T03:57:14.731Z,5.94
2022-12-01T03:59:42.380Z,5.94
2022-12-01T04:02:08.881Z,5.89
2022-12-01T04:04:35.435Z,5.86
2022-12-01T04:07:01.869Z,6.06
2022-12-01T04:09:28.556Z,6.00
2022-12-01T04:12:13.583Z,5.90
2022-12-01T04:14:40.000Z,5.87
2022-12-01T04:17:06.503Z,5.99
2022-12-01T04:19:32.918Z,5.95
2022-12-01T04:21:59.330Z,5.87
2022-12-01T04:24:25.761Z,5.95
2022-12-01T04:26:52.176Z,5.89
2022-12-01T04:29:18.647Z,5.86
2022-12-01T04:31:45.103Z,5.81
2022-12-01T04:34:11.566Z,5.62
2022-12-01T04:36:38.004Z,5.79
2022-12-01T04:39:04.463Z,5.87
2022-12-01T04:41:30.889Z,5.63
2022-12-01T04:43:57.282Z,5.90
2022-12-01T04:46:23.895Z,5.85
2022-12-01T04:48:50.811Z,5.72
2022-12-01T04:51:17.534Z,5.69
2022-12-01T04:53:44.501Z,5.68
2022-12-01T04:56:10.882Z,5.63
2022-12-01T04:58:40.148Z,5.69
2022-12-01T05:01:08.981Z,5.66
2022-12-01T05:03:39.633Z,5.60
2022-12-01T05:06:08.499Z,5.54
2022-12-01T05:08:34.925Z,5.43
2022-12-01T05:11:01.358Z,5.41
2022-12-01T05:13:27.827Z,5.26
2022-12-01T05:15:54.320Z,5.27
2022-12-01T05:18:20.736Z,5.23
2022-12-01T05:20:59.203Z,5.24
2022-12-01T05:23:27.785Z,5.11
2022-12-01T05:25:54.590Z,5.15
2022-12-01T05:28:22.259Z,5.19
2022-12-01T05:30:49.520Z,5.31
2022-12-01T05:33:15.981Z,5.30
2022-12-01T05:35:42.428Z,5.23
2022-12-01T05:38:08.878Z,5.15
2022-12-01T05:40:36.510Z,5.19
2022-12-01T05:43:02.985Z,5.32
2022-12-01T05:45:29.426Z,5.24
2022-12-01T05:47:57.054Z,5.32
2022-12-01T05:50:24.290Z,5.36
2022-12-01T05:52:50.682Z,5.25
2022-12-01T05:55:17.130Z,5.22
2022-12-01T05:57:43.585Z,5.01
2022-12-01T06:00:10.615Z,5.20
2022-12-01T06:02:39.655Z,5.08
2022-12-01T06:05:06.919Z,5.06
2022-12-01T06:07:35.545Z,4.95
2022-12-01T06:10:02.322Z,5.03
2022-12-01T06:12:28.958Z,4.92
2022-12-01T06:14:55.429Z,4.81
2022-12-01T06:17:21.827Z,4.54
2022-12-01T06:19:48.558Z,4.47
2022-12-01T06:22:15.055Z,4.49
2022-12-01T06:24:41.566Z,4.57
2022-12-01T06:27:07.972Z,4.71
2022-12-01T06:29:39.042Z,4.58
2022-12-01T06:32:08.398Z,4.72
2022-12-01T06:34:34.975Z,4.68
2022-12-01T06:37:01.420Z,4.28
2022-12-01T06:39:27.795Z,4.47
2022-12-01T06:41:54.254Z,4.21
2022-12-01T06:44:20.677Z,4.38
2022-12-01T06:46:47.148Z,4.31
2022-12-01T06:49:13.560Z,4.36
2022-12-01T06:51:40.075Z,4.50
2022-12-01T06:54:06.481Z,4.39
2022-12-01T06:56:32.858Z,4.32
2022-12-01T06:58:59.766Z,4.33
2022-12-01T07:01:26.612Z,4.25
2022-12-01T07:03:53.096Z,4.38
2022-12-01T07:06:19.492Z,4.39
2022-12-01T07:08:45.915Z,4.23
2022-12-01T07:11:14.162Z,4.22
2022-12-01T07:13:41.822Z,4.29
2022-12-01T07:16:08.789Z,4.28
2022-12-01T07:18:36.981Z,4.18
2022-12-01T07:21:05.352Z,4.23
2022-12-01T07:23:31.870Z,4.23
2022-12-01T07:26:15.396Z,4.34
2022-12-01T07:28:42.267Z,4.81
2022-12-01T07:31:14.411Z,4.48
2022-12-01T07:33:41.370Z,4.46
2022-12-01T07:36:08.383Z,4.38
2022-12-01T07:38:35.736Z,4.32
2022-12-01T07:41:07.397Z,4.20
2022-12-01T07:43:34.364Z,4.32
2022-12-01T07:46:05.322Z,4.24
2022-12-01T07:48:31.763Z,4.28
2022-12-01T07:50:58.158Z,4.15
2022-12-01T07:53:24.526Z,4.18
2022-12-01T07:55:50.983Z,4.28
2022-12-01T07:58:17.480Z,4.20
2022-12-01T08:00:43.903Z,4.11
2022-12-01T08:03:10.381Z,4.13
2022-12-01T08:05:36.806Z,4.27
2022-12-01T08:08:03.332Z,4.28
2022-12-01T08:10:29.872Z,4.20
2022-12-01T08:12:56.234Z,4.26
2022-12-01T08:15:22.664Z,4.52
2022-12-01T08:17:49.063Z,4.55
2022-12-01T08:20:18.476Z,4.54
2022-12-01T08:22:48.774Z,4.65
2022-12-01T08:25:15.179Z,4.72
2022-12-01T08:27:41.569Z,4.64
2022-12-01T08:30:08.688Z,4.86
2022-12-01T08:32:36.634Z,4.88
2022-12-01T08:35:03.382Z,4.99
2022-12-01T08:37:29.965Z,4.99
2022-12-01T08:39:56.322Z,5.02
2022-12-01T08:42:22.719Z,4.98
2022-12-01T08:44:49.211Z,5.20
2022-12-01T08:47:18.732Z,5.23
2022-12-01T08:49:45.580Z,5.23
2022-12-01T08:52:12.035Z,5.28
2022-12-01T08:54:38.423Z,5.40
2022-12-01T08:57:04.806Z,5.38
2022-12-01T08:59:31.150Z,5.42
2022-12-01T09:01:59.645Z,5.51
2022-12-01T09:04:29.320Z,5.24
2022-12-01T09:06:58.329Z,5.23
2022-12-01T09:09:27.496Z,5.52
2022-12-01T09:11:55.063Z,5.54
2022-12-01T09:14:22.558Z,5.42
2022-12-01T09:16:50.106Z,5.63
2022-12-01T09:19:24.247Z,5.37
2022-12-01T09:21:51.275Z,5.44
2022-12-01T09:24:17.779Z,5.38
2022-12-01T09:26:44.179Z,5.38
2022-12-01T09:29:13.513Z,5.27
2022-12-01T09:31:40.020Z,5.42
2022-12-01T09:34:08.491Z,5.51
2022-12-01T09:36:36.558Z,5.42
2022-12-01T09:39:04.316Z,5.60
2022-12-01T09:41:47.440Z,5.73
2022-12-01T09:44:20.619Z,5.82
2022-12-01T09:46:50.420Z,5.85
2022-12-01T09:49:44.902Z,5.89
2022-12-01T09:52:12.931Z,5.91
2022-12-01T09:54:39.435Z,5.94
2022-12-01T09:57:06.188Z,5.30
2022-12-01T09:59:35.990Z,5.80
2022-12-01T10:02:03.997Z,5.89
2022-12-01T10:04:41.697Z,6.13
2022-12-01T10:10:37.987Z,6.22
2022-12-01T10:13:16.251Z,6.15
2022-12-01T10:15:54.215Z,6.38
2022-12-01T10:18:32.792Z,6.88
2022-12-01T10:21:11.387Z,7.15
2022-12-01T10:23:56.355Z,7.10
2022-12-01T10:26:40.335Z,7.64
2022-12-01T10:29:21.742Z,7.99
2022-12-01T10:32:03.707Z,8.21
2022-12-01T10:34:33.806Z,8.22
2022-12-01T10:37:00.085Z,8.00
2022-12-01T10:39:34.517Z,8.08
2022-12-01T10:42:15.360Z,8.09
2022-12-01T10:44:42.669Z,7.90
2022-12-01T10:47:18.608Z,8.40
2022-12-01T10:49:48.478Z,8.51
2022-12-01T10:52:44.847Z,8.93
2022-12-01T10:55:24.747Z,9.30
2022-12-01T10:57:53.135Z,9.37
2022-12-01T11:00:58.427Z,8.84
2022-12-01T11:03:23.908Z,8.95
2022-12-01T11:05:57.295Z,8.65
2022-12-01T11:08:46.110Z,8.24
2022-12-01T11:11:34.940Z,8.51
2022-12-01T11:14:05.108Z,8.37
2022-12-01T11:16:41.395Z,8.28
2022-12-01T11:19:34.510Z,7.99
2022-12-01T11:22:22.553Z,7.91
2022-12-01T11:24:58.571Z,7.37
2022-12-01T11:27:36.495Z,7.78
2022-12-01T11:30:07.335Z,7.70
2022-12-01T11:32:38.902Z,7.67
2022-12-01T11:35:14.459Z,7.74
2022-12-01T11:38:13.117Z,7.59
2022-12-01T11:40:48.119Z,7.71
2022-12-01T11:43:37.937Z,7.57
2022-12-01T11:46:07.898Z,7.84
2022-12-01T11:48:36.175Z,7.96
2022-12-01T11:51:29.966Z,7.78
2022-12-01T11:54:21.537Z,7.64
2022-12-01T11:56:56.113Z,7.67
2022-12-01T11:59:30.905Z,7.73
2022-12-01T12:02:18.683Z,7.68
2022-12-01T12:04:57.429Z,7.73
2022-12-01T12:07:42.846Z,7.71
2022-12-01T12:10:41.847Z,7.34
2022-12-01T12:13:21.664Z,7.69
2022-12-01T12:15:53.767Z,7.49
2022-12-01T12:18:30.982Z,7.66
2022-12-01T12:21:04.074Z,7.49
2022-12-01T12:23:56.255Z,7.63
2022-12-01T12:26:30.983Z,7.38
2022-12-01T12:29:13.988Z,7.45
2022-12-01T12:32:30.284Z,7.37
2022-12-01T12:35:16.676Z,7.39
2022-12-01T12:37:54.571Z,7.48
2022-12-01T12:40:29.551Z,7.30
2022-12-01T12:43:14.146Z,7.43
2022-12-01T12:45:51.722Z,7.12
2022-12-01T12:49:18.225Z,7.37
2022-12-01T12:51:43.183Z,7.39
2022-12-01T12:54:27.383Z,7.27
2022-12-01T12:57:19.064Z,6.99
2022-12-01T13:00:05.061Z,7.44
2022-12-01T13:03:04.805Z,7.43
2022-12-01T13:06:08.148Z,7.21
2022-12-01T13:08:40.257Z,6.84
2022-12-01T13:11:20.369Z,7.02
2022-12-01T13:14:06.817Z,7.64
2022-12-01T13:16:42.397Z,7.19
2022-12-01T13:19:37.572Z,7.46
2022-12-01T13:22:04.400Z,7.17
2022-12-01T13:24:31.215Z,7.07
2022-12-01T13:27:02.018Z,7.71
2022-12-01T13:29:47.725Z,7.65
2022-12-01T13:32:36.384Z,7.60
2022-12-01T13:37:48.320Z,7.47
2022-12-01T13:40:26.155Z,7.68
2022-12-01T13:43:10.393Z,7.62
2022-12-01T13:45:38.672Z,7.46
2022-12-01T13:48:06.384Z,7.47
2022-12-01T13:50:35.896Z,7.58
2022-12-01T13:53:17.597Z,7.56
2022-12-01T13:56:03.919Z,7.27
2022-12-01T13:58:33.203Z,7.44
2022-12-01T14:01:41.706Z,7.27
2022-12-01T14:04:11.042Z,7.34
2022-12-01T14:06:46.401Z,7.28
2022-12-01T14:09:19.580Z,7.21
2022-12-01T14:11:58.077Z,7.30
2022-12-01T14:14:27.953Z,7.32
2022-12-01T14:16:58.452Z,7.35
2022-12-01T14:19:46.910Z,7.10
2022-12-01T14:22:33.462Z,7.20
2022-12-01T14:25:00.635Z,7.26
2022-12-01T14:27:39.188Z,6.73
2022-12-01T14:30:40.252Z,7.04
2022-12-01T14:33:40.927Z,6.98
2022-12-01T14:36:54.412Z,6.97
2022-12-01T14:39:29.881Z,6.86
2022-12-01T14:41:56.927Z,7.19
2022-12-01T14:44:28.747Z,6.95
2022-12-01T14:47:10.587Z,7.05
2022-12-01T14:49:53.745Z,6.79
2022-12-01T14:52:29.163Z,7.01
2022-12-01T14:54:57.883Z,6.66
2022-12-01T14:57:52.603Z,7.05
2022-12-01T15:00:24.350Z,7.01
2022-12-01T15:02:55.124Z,7.01
2022-12-01T15:05:25.006Z,6.72
2022-12-01T15:08:06.795Z,6.68
2022-12-01T15:10:52.651Z,6.34
2022-12-01T15:13:31.910Z,6.29
2022-12-01T15:16:01.695Z,6.41
2022-12-01T15:18:33.680Z,6.41
2022-12-01T15:21:10.719Z,6.40
2022-12-01T15:23:37.639Z,6.38
2022-12-01T15:26:04.244Z,6.19
2022-12-01T15:28:36.488Z,5.83
2022-12-01T15:31:09.662Z,6.00
2022-12-01T15:33:38.910Z,6.02
2022-12-01T15:36:26.997Z,5.86
2022-12-01T15:38:53.911Z,5.79
2022-12-01T15:41:29.725Z,5.35
2022-12-01T15:43:58.875Z,5.68
2022-12-01T15:46:30.865Z,5.67
2022-12-01T15:49:18.125Z,5.62
2022-12-01T15:51:45.363Z,5.52
2022-12-01T15:54:22.603Z,5.51
2022-12-01T15:56:54.020Z,5.33
2022-12-01T15:59:39.632Z,5.12
2022-12-01T16:02:30.628Z,5.11
2022-12-01T16:05:09.196Z,5.29
2022-12-01T16:08:11.425Z,5.30
2022-12-01T16:10:41.510Z,5.13
2022-12-01T16:13:36.249Z,5.17
2022-12-01T16:16:30.613Z,5.13
2022-12-01T16:19:03.138Z,5.06
2022-12-01T16:21:45.384Z,4.89
2022-12-01T16:24:16.148Z,4.81
2022-12-01T16:26:51.841Z,4.98
2022-12-01T16:29:20.283Z,4.86
2022-12-01T16:32:12.590Z,4.81
2022-12-01T16:34:45.911Z,4.95
2022-12-01T16:37:13.434Z,4.72
2022-12-01T16:39:39.788Z,4.81
2022-12-01T16:42:06.226Z,4.81
2022-12-01T16:44:32.719Z,4.77
2022-12-01T16:46:59.092Z,4.84
2022-12-01T16:49:25.554Z,4.81
2022-12-01T16:51:56.782Z,4.73
2022-12-01T16:54:23.802Z,4.74
2022-12-01T16:56:50.913Z,4.79
2022-12-01T16:59:17.258Z,4.67
2022-12-01T17:01:43.649Z,4.60
2022-12-01T17:04:10.062Z,4.62
2022-12-01T17:06:38.242Z,4.61
2022-12-01T17:09:05.020Z,4.50
2022-12-01T17:11:32.110Z,4.49
2022-12-01T17:13:58.587Z,4.37
2022-12-01T17:16:25.082Z,4.37
2022-12-01T17:18:51.558Z,4.25
2022-12-01T17:21:17.991Z,4.36
2022-12-01T17:23:44.615Z,4.41
2022-12-01T17:26:13.518Z,4.41
2022-12-01T17:28:39.949Z,4.21
2022-12-01T17:31:07.020Z,4.27
2022-12-01T17:33:34.522Z,4.16
2022-12-01T17:36:03.181Z,3.80
2022-12-01T17:38:29.943Z,3.90
2022-12-01T17:41:08.479Z,3.93
2022-12-01T17:43:36.127Z,3.96
2022-12-01T17:46:03.502Z,3.87
2022-12-01T17:48:30.067Z,3.83
2022-12-01T17:50:56.666Z,3.91
2022-12-01T17:53:23.086Z,3.88
2022-12-01T17:55:49.500Z,3.84
2022-12-01T17:58:18.765Z,3.73
2022-12-01T18:00:45.143Z,3.85
2022-12-01T18:03:11.653Z,3.87
2022-12-01T18:05:38.175Z,3.67
2022-12-01T18:08:04.938Z,3.65
2022-12-01T18:10:31.388Z,3.48
2022-12-01T18:12:57.734Z,3.52
2022-12-01T18:15:26.536Z,3.40
2022-12-01T18:17:54.984Z,3.44
2022-12-01T18:20:21.455Z,3.42
2022-12-01T18:22:48.473Z,3.25
2022-12-01T18:25:15.101Z,3.32
2022-12-01T18:27:41.615Z,3.32
2022-12-01T18:30:11.573Z,3.25
2022-12-01T18:32:38.038Z,3.13
2022-12-01T18:35:05.103Z,3.10
2022-12-01T18:37:31.635Z,3.05
2022-12-01T18:39:57.991Z,3.03
2022-12-01T18:42:24.578Z,3.15
2022-12-01T18:44:51.370Z,2.96
2022-12-01T18:47:18.006Z,3.01
2022-12-01T18:49:44.352Z,2.99
2022-12-01T18:52:10.751Z,3.02
2022-12-01T18:54:37.184Z,2.86
2022-12-01T18:57:03.661Z,2.98
2022-12-01T18:59:30.147Z,2.95
2022-12-01T19:01:56.684Z,2.93
2022-12-01T19:04:23.210Z,2.71
2022-12-01T19:06:49.571Z,2.82
2022-12-01T19:09:16.079Z,2.66
2022-12-01T19:11:43.258Z,2.83
2022-12-01T19:14:14.435Z,2.75
2022-12-01T19:16:41.685Z,2.77
2022-12-01T19:19:09.628Z,2.82
2022-12-01T19:21:36.017Z,2.74
2022-12-01T19:24:02.377Z,2.44
2022-12-01T19:26:28.808Z,2.71
2022-12-01T19:28:55.180Z,2.72
2022-12-01T19:31:23.588Z,2.82
2022-12-01T19:33:51.491Z,2.85
2022-12-01T19:36:20.758Z,2.74
2022-12-01T19:38:47.683Z,2.84
2022-12-01T19:41:14.410Z,2.90
2022-12-01T19:43:42.124Z,2.88
2022-12-01T19:46:11.316Z,2.93
2022-12-01T19:48:38.147Z,2.91
2022-12-01T19:51:05.271Z,2.88
2022-12-01T19:53:34.081Z,2.78
2022-12-01T19:56:05.080Z,3.00
2022-12-01T19:58:34.754Z,3.16
2022-12-01T20:01:12.757Z,3.12
2022-12-01T20:03:40.541Z,3.19
2022-12-01T20:06:09.690Z,3.41
2022-12-01T20:08:36.347Z,3.21
2022-12-01T20:11:06.134Z,3.50
2022-12-01T20:13:33.950Z,3.46
2022-12-01T20:16:10.470Z,3.61
2022-12-01T20:18:37.638Z,3.62
2022-12-01T20:21:08.689Z,3.52
2022-12-01T20:23:35.937Z,3.71
2022-12-01T20:26:05.026Z,3.84
2022-12-01T20:28:32.239Z,3.71
2022-12-01T20:30:59.278Z,3.62
2022-12-01T20:33:27.903Z,3.78
2022-12-01T20:35:54.343Z,3.89
2022-12-01T20:38:27.086Z,3.75
2022-12-01T20:40:54.166Z,3.98
2022-12-01T20:43:20.618Z,3.99
2022-12-01T20:45:47.163Z,4.06
2022-12-01T20:48:13.871Z,4.18
2022-12-01T20:50:40.316Z,4.10
2022-12-01T20:53:07.006Z,4.13
2022-12-01T20:55:35.786Z,4.28
2022-12-01T20:58:02.980Z,4.35
2022-12-01T21:00:30.095Z,4.22
2022-12-01T21:02:57.131Z,4.33
2022-12-01T21:05:27.209Z,4.13
2022-12-01T21:07:54.463Z,4.36
2022-12-01T21:10:21.095Z,4.28
2022-12-01T21:13:08.622Z,4.38
2022-12-01T21:15:52.457Z,4.31
2022-12-01T21:18:26.585Z,4.38
2022-12-01T21:21:07.945Z,4.43
2022-12-01T21:23:34.405Z,4.45
2022-12-01T21:26:00.848Z,4.45
2022-12-01T21:28:27.296Z,4.53
2022-12-01T21:31:01.596Z,4.27
2022-12-01T21:33:32.291Z,4.34
2022-12-01T21:36:00.833Z,4.48
2022-12-01T21:38:27.378Z,4.18
2022-12-01T21:40:54.416Z,4.37
2022-12-01T21:43:23.177Z,4.52
2022-12-01T21:45:58.248Z,4.52
2022-12-01T21:48:24.976Z,4.66
2022-12-01T21:51:00.901Z,4.65
2022-12-01T21:53:33.383Z,4.69
2022-12-01T21:55:59.923Z,4.36
2022-12-01T21:58:29.491Z,4.29
2022-12-01T22:00:57.868Z,4.35
2022-12-01T22:03:34.473Z,4.73
2022-12-01T22:06:31.385Z,4.66
2022-12-01T22:09:01.267Z,4.71
2022-12-01T22:11:29.248Z,4.64
2022-12-01T22:14:13.144Z,4.60
2022-12-01T22:16:44.566Z,4.67
2022-12-01T22:19:20.905Z,4.85
2022-12-01T22:21:47.750Z,4.67
2022-12-01T22:24:23.103Z,4.68
2022-12-01T22:27:10.600Z,4.61
2022-12-01T22:29:43.417Z,4.88
2022-12-01T22:32:12.863Z,4.85
2022-12-01T22:34:40.572Z,4.94
2022-12-01T22:37:16.908Z,4.79
2022-12-01T22:39:43.190Z,4.75
2022-12-01T22:42:13.871Z,4.91
2022-12-01T22:44:41.431Z,4.83
2022-12-01T22:47:09.203Z,4.89
2022-12-01T22:49:35.714Z,4.80
2022-12-01T22:52:07.150Z,4.94
2022-12-01T22:54:38.146Z,4.71
2022-12-01T22:57:07.639Z,4.99
2022-12-01T22:59:36.109Z,4.90
2022-12-01T23:02:21.089Z,4.69
2022-12-01T23:04:56.379Z,5.05
2022-12-01T23:07:26.410Z,4.97
2022-12-01T23:09:52.778Z,4.94
2022-12-01T23:12:25.243Z,4.85
2022-12-01T23:14:54.133Z,4.97
2022-12-01T23:17:28.959Z,4.73
2022-12-01T23:20:10.600Z,5.04
2022-12-01T23:22:37.848Z,5.06
2022-12-01T23:25:14.127Z,5.00
2022-12-01T23:27:40.852Z,4.90
2022-12-01T23:30:08.115Z,4.99
2022-12-01T23:32:34.788Z,5.09
2022-12-01T23:35:01.351Z,5.03
2022-12-01T23:37:34.186Z,4.86
2022-12-01T23:40:01.714Z,4.94
2022-12-01T23:42:28.191Z,4.88
2022-12-01T23:44:54.663Z,5.03
2022-12-01T23:47:27.742Z,5.06
2022-12-01T23:50:00.972Z,5.06
2022-12-01T23:52:32.678Z,5.11
2022-12-01T23:54:59.090Z,4.93
2022-12-01T23:57:25.787Z,4.92
2022-12-01T23:59:59.228Z,4.72
